sensor_id;sensor_type;location;lat;lon;timestamp;temperature;humidity
32502;DHT22;18952;52.516;13.460;2023-05-10T00:01:42;12.70;69.70
32502;DHT22;18952;52.516;13.460;2023-05-10T00:04:10;12.70;69.50
32502;DHT22;18952;52.516;13.460;2023-05-10T00:06:42;12.70;69.60
32502;DHT22;18952;52.516;13.460;2023-05-10T00:09:12;12.60;70.20
32502;DHT22;18952;52.516;13.460;2023-05-10T00:11:44;12.60;70.40
32502;DHT22;18952;52.516;13.460;2023-05-10T00:14:11;12.60;70.50
32502;DHT22;18952;52.516;13.460;2023-05-10T00:16:38;12.50;70.60
32502;DHT22;18952;52.516;13.460;2023-05-10T00:19:05;12.50;70.60
32502;DHT22;18952;52.516;13.460;2023-05-10T00:21:31;12.40;70.70
32502;DHT22;18952;52.516;13.460;2023-05-10T00:23:58;12.40;70.70
32502;DHT22;18952;52.516;13.460;2023-05-10T00:26:25;12.40;70.90
32502;DHT22;18952;52.516;13.460;2023-05-10T00:28:52;12.30;71.10
32502;DHT22;18952;52.516;13.460;2023-05-10T00:31:18;12.30;71.70
32502;DHT22;18952;52.516;13.460;2023-05-10T00:33:45;12.20;71.70
32502;DHT22;18952;52.516;13.460;2023-05-10T00:36:12;12.20;71.40
32502;DHT22;18952;52.516;13.460;2023-05-10T00:38:40;12.20;72.00
32502;DHT22;18952;52.516;13.460;2023-05-10T00:41:08;12.10;72.50
32502;DHT22;18952;52.516;13.460;2023-05-10T00:43:35;12.10;72.30
32502;DHT22;18952;52.516;13.460;2023-05-10T00:46:04;12.10;72.40
32502;DHT22;18952;52.516;13.460;2023-05-10T00:48:31;12.00;72.50
32502;DHT22;18952;52.516;13.460;2023-05-10T00:51:01;12.00;73.40
32502;DHT22;18952;52.516;13.460;2023-05-10T00:53:28;12.00;73.10
32502;DHT22;18952;52.516;13.460;2023-05-10T00:55:59;11.90;73.30
32502;DHT22;18952;52.516;13.460;2023-05-10T00:58:27;11.90;73.70
32502;DHT22;18952;52.516;13.460;2023-05-10T01:00:58;11.80;73.70
32502;DHT22;18952;52.516;13.460;2023-05-10T01:03:28;11.80;74.30
32502;DHT22;18952;52.516;13.460;2023-05-10T01:05:58;11.70;74.20
32502;DHT22;18952;52.516;13.460;2023-05-10T01:08:26;11.70;74.90
32502;DHT22;18952;52.516;13.460;2023-05-10T01:10:54;11.60;75.10
32502;DHT22;18952;52.516;13.460;2023-05-10T01:13:31;11.60;75.40
32502;DHT22;18952;52.516;13.460;2023-05-10T01:15:59;11.60;75.80
32502;DHT22;18952;52.516;13.460;2023-05-10T01:18:27;11.50;76.00
32502;DHT22;18952;52.516;13.460;2023-05-10T01:35:36;11.30;78.70
32502;DHT22;18952;52.516;13.460;2023-05-10T01:43:34;11.20;79.60
32502;DHT22;18952;52.516;13.460;2023-05-10T01:46:10;11.20;79.80
32502;DHT22;18952;52.516;13.460;2023-05-10T01:48:42;11.10;80.80
32502;DHT22;18952;52.516;13.460;2023-05-10T01:51:17;11.10;80.60
32502;DHT22;18952;52.516;13.460;2023-05-10T01:53:47;11.00;81.30
32502;DHT22;18952;52.516;13.460;2023-05-10T01:56:16;11.10;81.10
32502;DHT22;18952;52.516;13.460;2023-05-10T01:58:44;11.00;82.20
32502;DHT22;18952;52.516;13.460;2023-05-10T02:01:13;11.00;82.40
32502;DHT22;18952;52.516;13.460;2023-05-10T02:03:41;11.00;82.90
32502;DHT22;18952;52.516;13.460;2023-05-10T02:06:10;11.00;82.90
32502;DHT22;18952;52.516;13.460;2023-05-10T02:08:39;11.00;83.20
32502;DHT22;18952;52.516;13.460;2023-05-10T02:11:07;10.90;83.90
32502;DHT22;18952;52.516;13.460;2023-05-10T02:13:36;10.90;84.20
32502;DHT22;18952;52.516;13.460;2023-05-10T02:16:05;10.90;84.50
32502;DHT22;18952;52.516;13.460;2023-05-10T02:18:34;10.80;85.10
32502;DHT22;18952;52.516;13.460;2023-05-10T02:21:03;10.90;85.00
32502;DHT22;18952;52.516;13.460;2023-05-10T02:23:30;10.80;85.60
32502;DHT22;18952;52.516;13.460;2023-05-10T02:25:58;10.80;85.90
32502;DHT22;18952;52.516;13.460;2023-05-10T02:28:27;10.80;86.00
32502;DHT22;18952;52.516;13.460;2023-05-10T02:30:55;10.80;86.50
32502;DHT22;18952;52.516;13.460;2023-05-10T02:33:22;10.80;86.50
32502;DHT22;18952;52.516;13.460;2023-05-10T02:35:51;10.80;86.90
32502;DHT22;18952;52.516;13.460;2023-05-10T02:38:20;10.80;87.10
32502;DHT22;18952;52.516;13.460;2023-05-10T02:40:51;10.70;87.50
32502;DHT22;18952;52.516;13.460;2023-05-10T02:43:19;10.70;88.60
32502;DHT22;18952;52.516;13.460;2023-05-10T02:45:50;10.60;88.00
32502;DHT22;18952;52.516;13.460;2023-05-10T02:48:18;10.70;89.40
32502;DHT22;18952;52.516;13.460;2023-05-10T02:50:47;10.60;89.60
32502;DHT22;18952;52.516;13.460;2023-05-10T02:53:32;10.50;90.20
32502;DHT22;18952;52.516;13.460;2023-05-10T02:56:04;10.50;90.50
32502;DHT22;18952;52.516;13.460;2023-05-10T02:58:32;10.50;90.40
32502;DHT22;18952;52.516;13.460;2023-05-10T03:01:00;10.50;90.90
32502;DHT22;18952;52.516;13.460;2023-05-10T03:03:28;10.40;90.90
32502;DHT22;18952;52.516;13.460;2023-05-10T03:05:55;10.40;91.00
32502;DHT22;18952;52.516;13.460;2023-05-10T03:08:23;10.50;91.00
32502;DHT22;18952;52.516;13.460;2023-05-10T03:14:10;10.40;91.20
32502;DHT22;18952;52.516;13.460;2023-05-10T03:16:56;10.40;91.30
32502;DHT22;18952;52.516;13.460;2023-05-10T03:19:27;10.40;91.30
32502;DHT22;18952;52.516;13.460;2023-05-10T03:21:59;10.40;91.90
32502;DHT22;18952;52.516;13.460;2023-05-10T03:24:27;10.30;91.70
32502;DHT22;18952;52.516;13.460;2023-05-10T03:26:56;10.30;92.00
32502;DHT22;18952;52.516;13.460;2023-05-10T03:29:26;10.30;92.20
32502;DHT22;18952;52.516;13.460;2023-05-10T03:31:53;10.20;92.60
32502;DHT22;18952;52.516;13.460;2023-05-10T03:34:24;10.20;92.70
32502;DHT22;18952;52.516;13.460;2023-05-10T03:36:51;10.30;92.80
32502;DHT22;18952;52.516;13.460;2023-05-10T03:39:18;10.30;92.80
32502;DHT22;18952;52.516;13.460;2023-05-10T03:41:46;10.20;93.00
32502;DHT22;18952;52.516;13.460;2023-05-10T03:44:14;10.20;93.20
32502;DHT22;18952;52.516;13.460;2023-05-10T03:46:41;10.20;93.30
32502;DHT22;18952;52.516;13.460;2023-05-10T03:49:09;10.20;93.10
32502;DHT22;18952;52.516;13.460;2023-05-10T03:51:37;10.30;93.30
32502;DHT22;18952;52.516;13.460;2023-05-10T03:54:03;10.30;93.40
32502;DHT22;18952;52.516;13.460;2023-05-10T03:56:32;10.30;93.30
32502;DHT22;18952;52.516;13.460;2023-05-10T03:59:02;10.30;93.80
32502;DHT22;18952;52.516;13.460;2023-05-10T04:01:31;10.20;93.80
32502;DHT22;18952;52.516;13.460;2023-05-10T04:03:58;10.20;93.70
32502;DHT22;18952;52.516;13.460;2023-05-10T04:06:25;10.30;93.60
32502;DHT22;18952;52.516;13.460;2023-05-10T04:08:52;10.30;93.70
32502;DHT22;18952;52.516;13.460;2023-05-10T04:11:20;10.40;93.60
32502;DHT22;18952;52.516;13.460;2023-05-10T04:13:48;10.40;93.60
32502;DHT22;18952;52.516;13.460;2023-05-10T04:16:15;10.40;93.60
32502;DHT22;18952;52.516;13.460;2023-05-10T04:18:43;10.40;93.60
32502;DHT22;18952;52.516;13.460;2023-05-10T04:21:13;10.40;93.90
32502;DHT22;18952;52.516;13.460;2023-05-10T04:23:41;10.40;93.90
32502;DHT22;18952;52.516;13.460;2023-05-10T04:26:08;10.40;94.00
32502;DHT22;18952;52.516;13.460;2023-05-10T04:28:35;10.40;94.10
32502;DHT22;18952;52.516;13.460;2023-05-10T04:31:09;10.40;94.10
32502;DHT22;18952;52.516;13.460;2023-05-10T04:33:37;10.40;94.50
32502;DHT22;18952;52.516;13.460;2023-05-10T04:36:16;10.40;94.20
32502;DHT22;18952;52.516;13.460;2023-05-10T04:38:42;10.50;94.10
32502;DHT22;18952;52.516;13.460;2023-05-10T04:41:10;10.50;94.20
32502;DHT22;18952;52.516;13.460;2023-05-10T04:43:37;10.50;94.20
32502;DHT22;18952;52.516;13.460;2023-05-10T04:46:05;10.60;94.20
32502;DHT22;18952;52.516;13.460;2023-05-10T04:48:32;10.60;94.10
32502;DHT22;18952;52.516;13.460;2023-05-10T04:50:59;10.60;94.00
32502;DHT22;18952;52.516;13.460;2023-05-10T04:53:26;10.60;94.10
32502;DHT22;18952;52.516;13.460;2023-05-10T04:55:53;10.70;93.70
32502;DHT22;18952;52.516;13.460;2023-05-10T04:58:20;10.70;93.80
32502;DHT22;18952;52.516;13.460;2023-05-10T05:00:48;10.80;93.90
32502;DHT22;18952;52.516;13.460;2023-05-10T05:03:15;10.80;93.70
32502;DHT22;18952;52.516;13.460;2023-05-10T05:05:43;10.90;93.80
32502;DHT22;18952;52.516;13.460;2023-05-10T05:08:10;10.90;93.80
32502;DHT22;18952;52.516;13.460;2023-05-10T05:10:37;10.90;93.70
32502;DHT22;18952;52.516;13.460;2023-05-10T05:13:06;10.90;93.60
32502;DHT22;18952;52.516;13.460;2023-05-10T05:15:35;10.90;93.70
32502;DHT22;18952;52.516;13.460;2023-05-10T05:18:08;11.00;93.80
32502;DHT22;18952;52.516;13.460;2023-05-10T05:20:43;11.10;93.60
32502;DHT22;18952;52.516;13.460;2023-05-10T05:23:12;11.10;93.70
32502;DHT22;18952;52.516;13.460;2023-05-10T05:25:41;11.20;93.60
32502;DHT22;18952;52.516;13.460;2023-05-10T05:28:08;11.20;93.40
32502;DHT22;18952;52.516;13.460;2023-05-10T05:30:35;11.20;93.70
32502;DHT22;18952;52.516;13.460;2023-05-10T05:33:02;11.20;93.70
32502;DHT22;18952;52.516;13.460;2023-05-10T05:35:29;11.30;93.70
32502;DHT22;18952;52.516;13.460;2023-05-10T05:37:55;11.30;93.70
32502;DHT22;18952;52.516;13.460;2023-05-10T05:40:22;11.40;93.70
32502;DHT22;18952;52.516;13.460;2023-05-10T05:42:50;11.40;93.60
32502;DHT22;18952;52.516;13.460;2023-05-10T05:45:17;11.50;93.60
32502;DHT22;18952;52.516;13.460;2023-05-10T05:47:46;11.60;93.70
32502;DHT22;18952;52.516;13.460;2023-05-10T05:50:13;11.60;93.60
32502;DHT22;18952;52.516;13.460;2023-05-10T05:52:41;11.70;93.60
32502;DHT22;18952;52.516;13.460;2023-05-10T05:55:09;11.70;93.50
32502;DHT22;18952;52.516;13.460;2023-05-10T05:57:39;11.80;93.40
32502;DHT22;18952;52.516;13.460;2023-05-10T06:00:06;11.80;93.40
32502;DHT22;18952;52.516;13.460;2023-05-10T06:02:33;11.90;93.40
32502;DHT22;18952;52.516;13.460;2023-05-10T06:05:00;12.00;93.70
32502;DHT22;18952;52.516;13.460;2023-05-10T06:07:34;12.00;94.10
32502;DHT22;18952;52.516;13.460;2023-05-10T06:10:05;12.10;93.80
32502;DHT22;18952;52.516;13.460;2023-05-10T06:12:32;12.20;93.50
32502;DHT22;18952;52.516;13.460;2023-05-10T06:14:58;12.20;93.20
32502;DHT22;18952;52.516;13.460;2023-05-10T06:17:25;12.30;93.10
32502;DHT22;18952;52.516;13.460;2023-05-10T06:19:52;12.40;93.00
32502;DHT22;18952;52.516;13.460;2023-05-10T06:22:20;12.40;93.00
32502;DHT22;18952;52.516;13.460;2023-05-10T06:24:47;12.50;92.90
32502;DHT22;18952;52.516;13.460;2023-05-10T06:27:15;12.50;92.80
32502;DHT22;18952;52.516;13.460;2023-05-10T06:29:41;12.60;92.80
32502;DHT22;18952;52.516;13.460;2023-05-10T06:32:09;12.60;92.60
32502;DHT22;18952;52.516;13.460;2023-05-10T06:34:37;12.70;92.50
32502;DHT22;18952;52.516;13.460;2023-05-10T06:37:05;12.70;92.40
32502;DHT22;18952;52.516;13.460;2023-05-10T06:39:35;12.80;92.30
32502;DHT22;18952;52.516;13.460;2023-05-10T06:42:03;12.80;92.30
32502;DHT22;18952;52.516;13.460;2023-05-10T06:44:32;12.90;92.30
32502;DHT22;18952;52.516;13.460;2023-05-10T06:46:59;12.90;92.30
32502;DHT22;18952;52.516;13.460;2023-05-10T06:49:28;12.90;92.20
32502;DHT22;18952;52.516;13.460;2023-05-10T06:51:57;13.00;92.30
32502;DHT22;18952;52.516;13.460;2023-05-10T06:54:23;13.00;92.30
32502;DHT22;18952;52.516;13.460;2023-05-10T06:56:50;13.10;92.20
32502;DHT22;18952;52.516;13.460;2023-05-10T06:59:17;13.10;92.00
32502;DHT22;18952;52.516;13.460;2023-05-10T07:01:44;13.20;92.10
32502;DHT22;18952;52.516;13.460;2023-05-10T07:04:10;13.20;92.00
32502;DHT22;18952;52.516;13.460;2023-05-10T07:06:37;13.30;92.00
32502;DHT22;18952;52.516;13.460;2023-05-10T07:09:06;13.30;92.00
32502;DHT22;18952;52.516;13.460;2023-05-10T07:11:33;13.40;92.00
32502;DHT22;18952;52.516;13.460;2023-05-10T07:14:00;13.40;91.80
32502;DHT22;18952;52.516;13.460;2023-05-10T07:16:27;13.40;91.80
32502;DHT22;18952;52.516;13.460;2023-05-10T07:18:54;13.50;91.90
32502;DHT22;18952;52.516;13.460;2023-05-10T07:21:20;13.50;91.80
32502;DHT22;18952;52.516;13.460;2023-05-10T07:23:49;13.50;91.70
32502;DHT22;18952;52.516;13.460;2023-05-10T07:26:15;13.60;91.80
32502;DHT22;18952;52.516;13.460;2023-05-10T07:28:43;13.70;91.60
32502;DHT22;18952;52.516;13.460;2023-05-10T07:31:11;13.70;91.60
32502;DHT22;18952;52.516;13.460;2023-05-10T07:33:39;13.80;91.60
32502;DHT22;18952;52.516;13.460;2023-05-10T07:36:07;13.80;91.60
32502;DHT22;18952;52.516;13.460;2023-05-10T07:38:37;13.90;91.60
32502;DHT22;18952;52.516;13.460;2023-05-10T07:41:06;13.90;91.60
32502;DHT22;18952;52.516;13.460;2023-05-10T07:43:34;14.00;91.40
32502;DHT22;18952;52.516;13.460;2023-05-10T07:46:01;14.00;91.30
32502;DHT22;18952;52.516;13.460;2023-05-10T07:48:28;14.10;91.20
32502;DHT22;18952;52.516;13.460;2023-05-10T07:50:55;14.10;91.10
32502;DHT22;18952;52.516;13.460;2023-05-10T07:53:22;14.20;91.10
32502;DHT22;18952;52.516;13.460;2023-05-10T07:55:54;14.30;91.20
32502;DHT22;18952;52.516;13.460;2023-05-10T07:58:24;14.30;91.00
32502;DHT22;18952;52.516;13.460;2023-05-10T08:00:51;14.30;90.90
32502;DHT22;18952;52.516;13.460;2023-05-10T08:03:18;14.40;91.10
32502;DHT22;18952;52.516;13.460;2023-05-10T08:05:45;14.40;91.10
32502;DHT22;18952;52.516;13.460;2023-05-10T08:08:16;14.50;90.90
32502;DHT22;18952;52.516;13.460;2023-05-10T08:10:45;14.60;91.20
32502;DHT22;18952;52.516;13.460;2023-05-10T08:13:12;14.70;91.00
32502;DHT22;18952;52.516;13.460;2023-05-10T08:15:39;14.70;90.50
32502;DHT22;18952;52.516;13.460;2023-05-10T08:18:06;14.80;90.40
32502;DHT22;18952;52.516;13.460;2023-05-10T08:20:39;14.80;90.40
32502;DHT22;18952;52.516;13.460;2023-05-10T08:23:07;14.80;90.20
32502;DHT22;18952;52.516;13.460;2023-05-10T08:25:34;14.90;90.00
32502;DHT22;18952;52.516;13.460;2023-05-10T08:28:02;14.90;90.00
32502;DHT22;18952;52.516;13.460;2023-05-10T08:30:30;15.00;89.70
32502;DHT22;18952;52.516;13.460;2023-05-10T08:33:00;15.00;89.60
32502;DHT22;18952;52.516;13.460;2023-05-10T08:35:28;15.00;89.50
32502;DHT22;18952;52.516;13.460;2023-05-10T08:37:57;15.10;88.90
32502;DHT22;18952;52.516;13.460;2023-05-10T08:40:30;15.10;88.90
32502;DHT22;18952;52.516;13.460;2023-05-10T08:43:05;15.20;88.70
32502;DHT22;18952;52.516;13.460;2023-05-10T08:45:42;15.20;88.30
32502;DHT22;18952;52.516;13.460;2023-05-10T08:48:10;15.20;88.80
32502;DHT22;18952;52.516;13.460;2023-05-10T08:50:42;15.30;88.70
32502;DHT22;18952;52.516;13.460;2023-05-10T08:53:13;15.40;88.10
32502;DHT22;18952;52.516;13.460;2023-05-10T08:55:40;15.40;87.70
32502;DHT22;18952;52.516;13.460;2023-05-10T08:58:09;15.50;87.20
32502;DHT22;18952;52.516;13.460;2023-05-10T09:00:49;15.50;87.20
32502;DHT22;18952;52.516;13.460;2023-05-10T09:03:45;15.50;86.30
32502;DHT22;18952;52.516;13.460;2023-05-10T09:06:14;15.60;86.30
32502;DHT22;18952;52.516;13.460;2023-05-10T09:08:44;15.60;86.10
32502;DHT22;18952;52.516;13.460;2023-05-10T09:11:12;15.70;86.40
32502;DHT22;18952;52.516;13.460;2023-05-10T09:13:44;15.80;86.40
32502;DHT22;18952;52.516;13.460;2023-05-10T09:16:14;15.80;85.80
32502;DHT22;18952;52.516;13.460;2023-05-10T09:18:49;15.90;85.40
32502;DHT22;18952;52.516;13.460;2023-05-10T09:21:16;15.90;85.40
32502;DHT22;18952;52.516;13.460;2023-05-10T09:23:45;16.00;85.30
32502;DHT22;18952;52.516;13.460;2023-05-10T09:26:14;16.00;84.80
32502;DHT22;18952;52.516;13.460;2023-05-10T09:28:56;16.10;84.80
32502;DHT22;18952;52.516;13.460;2023-05-10T09:31:24;16.10;84.30
32502;DHT22;18952;52.516;13.460;2023-05-10T09:33:53;16.20;84.30
32502;DHT22;18952;52.516;13.460;2023-05-10T09:36:23;16.30;84.50
32502;DHT22;18952;52.516;13.460;2023-05-10T09:38:51;16.40;83.80
32502;DHT22;18952;52.516;13.460;2023-05-10T09:41:22;16.40;83.20
32502;DHT22;18952;52.516;13.460;2023-05-10T09:43:55;16.50;83.20
32502;DHT22;18952;52.516;13.460;2023-05-10T09:46:27;16.50;83.10
32502;DHT22;18952;52.516;13.460;2023-05-10T09:48:56;16.50;83.00
32502;DHT22;18952;52.516;13.460;2023-05-10T09:51:24;16.60;82.90
32502;DHT22;18952;52.516;13.460;2023-05-10T09:54:15;16.60;82.70
32502;DHT22;18952;52.516;13.460;2023-05-10T09:56:42;16.70;82.30
32502;DHT22;18952;52.516;13.460;2023-05-10T09:59:11;16.70;82.00
32502;DHT22;18952;52.516;13.460;2023-05-10T10:01:41;16.80;81.60
32502;DHT22;18952;52.516;13.460;2023-05-10T10:04:09;16.80;81.50
32502;DHT22;18952;52.516;13.460;2023-05-10T10:06:40;16.80;80.80
32502;DHT22;18952;52.516;13.460;2023-05-10T10:09:10;16.90;81.00
32502;DHT22;18952;52.516;13.460;2023-05-10T10:11:38;17.00;80.70
32502;DHT22;18952;52.516;13.460;2023-05-10T10:14:08;17.00;80.50
32502;DHT22;18952;52.516;13.460;2023-05-10T10:16:35;17.10;79.90
32502;DHT22;18952;52.516;13.460;2023-05-10T10:19:22;17.10;79.60
32502;DHT22;18952;52.516;13.460;2023-05-10T10:21:53;17.20;79.70
32502;DHT22;18952;52.516;13.460;2023-05-10T10:24:27;17.30;80.30
32502;DHT22;18952;52.516;13.460;2023-05-10T10:27:08;17.30;80.20
32502;DHT22;18952;52.516;13.460;2023-05-10T10:30:18;17.30;79.60
32502;DHT22;18952;52.516;13.460;2023-05-10T10:36:00;17.50;79.00
32502;DHT22;18952;52.516;13.460;2023-05-10T10:38:59;17.50;79.40
32502;DHT22;18952;52.516;13.460;2023-05-10T10:41:31;17.50;79.40
32502;DHT22;18952;52.516;13.460;2023-05-10T10:49:51;17.70;77.90
32502;DHT22;18952;52.516;13.460;2023-05-10T10:52:37;17.70;77.30
32502;DHT22;18952;52.516;13.460;2023-05-10T10:57:46;17.90;77.50
32502;DHT22;18952;52.516;13.460;2023-05-10T11:00:43;17.90;77.60
32502;DHT22;18952;52.516;13.460;2023-05-10T11:03:15;18.00;78.10
32502;DHT22;18952;52.516;13.460;2023-05-10T11:05:46;18.00;77.90
32502;DHT22;18952;52.516;13.460;2023-05-10T11:08:33;18.10;77.40
32502;DHT22;18952;52.516;13.460;2023-05-10T11:11:05;18.20;76.50
32502;DHT22;18952;52.516;13.460;2023-05-10T11:13:45;18.20;76.30
32502;DHT22;18952;52.516;13.460;2023-05-10T11:16:24;18.30;76.10
32502;DHT22;18952;52.516;13.460;2023-05-10T11:19:09;18.40;76.40
32502;DHT22;18952;52.516;13.460;2023-05-10T11:24:31;18.80;75.70
32502;DHT22;18952;52.516;13.460;2023-05-10T11:26:58;18.80;75.40
32502;DHT22;18952;52.516;13.460;2023-05-10T11:29:25;19.00;75.50
32502;DHT22;18952;52.516;13.460;2023-05-10T11:31:51;19.10;75.20
32502;DHT22;18952;52.516;13.460;2023-05-10T11:34:25;19.30;74.20
32502;DHT22;18952;52.516;13.460;2023-05-10T11:36:54;19.50;73.60
32502;DHT22;18952;52.516;13.460;2023-05-10T11:39:21;19.60;73.00
32502;DHT22;18952;52.516;13.460;2023-05-10T11:41:52;19.70;73.00
32502;DHT22;18952;52.516;13.460;2023-05-10T11:44:18;19.80;72.30
32502;DHT22;18952;52.516;13.460;2023-05-10T11:46:47;19.90;71.90
32502;DHT22;18952;52.516;13.460;2023-05-10T11:49:15;19.90;71.60
32502;DHT22;18952;52.516;13.460;2023-05-10T11:51:43;20.10;71.70
32502;DHT22;18952;52.516;13.460;2023-05-10T11:54:19;20.20;71.30
32502;DHT22;18952;52.516;13.460;2023-05-10T11:56:47;20.40;69.70
32502;DHT22;18952;52.516;13.460;2023-05-10T11:59:14;20.50;69.80
32502;DHT22;18952;52.516;13.460;2023-05-10T12:01:45;20.70;69.00
32502;DHT22;18952;52.516;13.460;2023-05-10T12:04:16;20.90;68.30
32502;DHT22;18952;52.516;13.460;2023-05-10T12:07:04;21.20;67.80
32502;DHT22;18952;52.516;13.460;2023-05-10T12:09:32;21.50;67.50
32502;DHT22;18952;52.516;13.460;2023-05-10T12:12:16;21.80;67.00
32502;DHT22;18952;52.516;13.460;2023-05-10T12:14:44;22.10;64.40
32502;DHT22;18952;52.516;13.460;2023-05-10T12:17:16;22.40;63.80
32502;DHT22;18952;52.516;13.460;2023-05-10T12:19:43;22.50;63.00
32502;DHT22;18952;52.516;13.460;2023-05-10T12:22:12;22.70;63.30
32502;DHT22;18952;52.516;13.460;2023-05-10T12:24:39;23.00;61.90
32502;DHT22;18952;52.516;13.460;2023-05-10T12:27:09;23.20;60.10
32502;DHT22;18952;52.516;13.460;2023-05-10T12:29:41;23.40;60.00
32502;DHT22;18952;52.516;13.460;2023-05-10T12:32:09;23.50;59.20
32502;DHT22;18952;52.516;13.460;2023-05-10T12:34:42;23.70;59.50
32502;DHT22;18952;52.516;13.460;2023-05-10T12:37:10;23.80;58.10
32502;DHT22;18952;52.516;13.460;2023-05-10T12:39:44;24.00;57.30
32502;DHT22;18952;52.516;13.460;2023-05-10T12:42:13;24.00;57.80
32502;DHT22;18952;52.516;13.460;2023-05-10T12:44:40;24.00;57.70
32502;DHT22;18952;52.516;13.460;2023-05-10T12:47:07;24.10;57.50
32502;DHT22;18952;52.516;13.460;2023-05-10T12:49:34;24.20;57.20
32502;DHT22;18952;52.516;13.460;2023-05-10T12:52:01;24.30;57.50
32502;DHT22;18952;52.516;13.460;2023-05-10T12:54:28;24.70;57.00
32502;DHT22;18952;52.516;13.460;2023-05-10T12:56:57;25.00;56.30
32502;DHT22;18952;52.516;13.460;2023-05-10T12:59:25;25.20;53.90
32502;DHT22;18952;52.516;13.460;2023-05-10T13:01:52;25.50;54.30
32502;DHT22;18952;52.516;13.460;2023-05-10T13:04:19;25.80;54.30
32502;DHT22;18952;52.516;13.460;2023-05-10T13:06:45;25.90;54.30
32502;DHT22;18952;52.516;13.460;2023-05-10T13:09:12;26.10;53.90
32502;DHT22;18952;52.516;13.460;2023-05-10T13:11:39;26.30;54.00
32502;DHT22;18952;52.516;13.460;2023-05-10T13:14:06;26.60;53.10
32502;DHT22;18952;52.516;13.460;2023-05-10T13:16:33;26.60;52.70
32502;DHT22;18952;52.516;13.460;2023-05-10T13:19:00;26.60;51.10
32502;DHT22;18952;52.516;13.460;2023-05-10T13:21:27;26.70;50.50
32502;DHT22;18952;52.516;13.460;2023-05-10T13:24:01;26.70;50.50
32502;DHT22;18952;52.516;13.460;2023-05-10T13:26:31;26.70;50.20
32502;DHT22;18952;52.516;13.460;2023-05-10T13:28:57;26.70;50.30
32502;DHT22;18952;52.516;13.460;2023-05-10T13:31:28;26.70;50.40
32502;DHT22;18952;52.516;13.460;2023-05-10T13:33:55;27.00;51.50
32502;DHT22;18952;52.516;13.460;2023-05-10T13:36:23;27.20;50.50
32502;DHT22;18952;52.516;13.460;2023-05-10T13:38:50;27.30;50.30
32502;DHT22;18952;52.516;13.460;2023-05-10T13:41:24;27.10;49.90
32502;DHT22;18952;52.516;13.460;2023-05-10T13:43:58;26.90;49.50
32502;DHT22;18952;52.516;13.460;2023-05-10T13:46:25;27.10;49.80
32502;DHT22;18952;52.516;13.460;2023-05-10T13:48:52;27.40;48.30
32502;DHT22;18952;52.516;13.460;2023-05-10T13:51:19;27.50;49.00
32502;DHT22;18952;52.516;13.460;2023-05-10T13:53:53;27.80;48.80
32502;DHT22;18952;52.516;13.460;2023-05-10T13:56:21;28.20;48.60
32502;DHT22;18952;52.516;13.460;2023-05-10T13:58:48;28.30;47.50
32502;DHT22;18952;52.516;13.460;2023-05-10T14:01:16;28.00;47.70
32502;DHT22;18952;52.516;13.460;2023-05-10T14:03:45;27.90;47.70
32502;DHT22;18952;52.516;13.460;2023-05-10T14:06:15;28.00;48.30
32502;DHT22;18952;52.516;13.460;2023-05-10T14:08:44;28.30;47.40
32502;DHT22;18952;52.516;13.460;2023-05-10T14:11:11;28.60;46.90
32502;DHT22;18952;52.516;13.460;2023-05-10T14:13:38;28.60;46.60
32502;DHT22;18952;52.516;13.460;2023-05-10T14:16:05;28.60;46.80
32502;DHT22;18952;52.516;13.460;2023-05-10T14:18:32;28.80;46.60
32502;DHT22;18952;52.516;13.460;2023-05-10T14:20:58;28.70;46.10
32502;DHT22;18952;52.516;13.460;2023-05-10T14:23:25;28.70;45.80
32502;DHT22;18952;52.516;13.460;2023-05-10T14:25:52;28.60;45.50
32502;DHT22;18952;52.516;13.460;2023-05-10T14:28:20;28.30;46.30
32502;DHT22;18952;52.516;13.460;2023-05-10T14:30:48;28.30;46.80
32502;DHT22;18952;52.516;13.460;2023-05-10T14:33:17;28.60;46.30
32502;DHT22;18952;52.516;13.460;2023-05-10T14:35:50;28.90;45.70
32502;DHT22;18952;52.516;13.460;2023-05-10T14:38:18;29.10;46.10
32502;DHT22;18952;52.516;13.460;2023-05-10T14:40:45;29.30;45.20
32502;DHT22;18952;52.516;13.460;2023-05-10T14:43:17;29.40;44.40
32502;DHT22;18952;52.516;13.460;2023-05-10T14:45:49;29.30;44.20
32502;DHT22;18952;52.516;13.460;2023-05-10T14:48:21;29.30;44.00
32502;DHT22;18952;52.516;13.460;2023-05-10T14:50:56;29.50;43.90
32502;DHT22;18952;52.516;13.460;2023-05-10T14:53:24;29.70;43.60
32502;DHT22;18952;52.516;13.460;2023-05-10T14:55:56;29.40;43.80
32502;DHT22;18952;52.516;13.460;2023-05-10T14:58:23;29.30;44.30
32502;DHT22;18952;52.516;13.460;2023-05-10T15:00:51;29.30;44.70
32502;DHT22;18952;52.516;13.460;2023-05-10T15:03:23;29.40;44.10
32502;DHT22;18952;52.516;13.460;2023-05-10T15:05:58;29.40;44.10
32502;DHT22;18952;52.516;13.460;2023-05-10T15:08:27;29.40;44.40
32502;DHT22;18952;52.516;13.460;2023-05-10T15:10:54;29.30;43.50
32502;DHT22;18952;52.516;13.460;2023-05-10T15:13:21;28.80;43.70
32502;DHT22;18952;52.516;13.460;2023-05-10T15:15:48;28.60;44.10
32502;DHT22;18952;52.516;13.460;2023-05-10T15:18:15;28.70;44.30
32502;DHT22;18952;52.516;13.460;2023-05-10T15:20:43;28.90;44.10
32502;DHT22;18952;52.516;13.460;2023-05-10T15:23:09;29.00;43.60
32502;DHT22;18952;52.516;13.460;2023-05-10T15:25:36;29.10;43.70
32502;DHT22;18952;52.516;13.460;2023-05-10T15:28:04;28.90;43.00
32502;DHT22;18952;52.516;13.460;2023-05-10T15:30:31;28.40;43.20
32502;DHT22;18952;52.516;13.460;2023-05-10T15:32:58;28.00;43.60
32502;DHT22;18952;52.516;13.460;2023-05-10T15:35:26;27.60;44.10
32502;DHT22;18952;52.516;13.460;2023-05-10T15:37:53;27.00;44.70
32502;DHT22;18952;52.516;13.460;2023-05-10T15:40:19;26.60;45.40
32502;DHT22;18952;52.516;13.460;2023-05-10T15:42:48;26.30;46.00
32502;DHT22;18952;52.516;13.460;2023-05-10T15:45:16;25.90;46.60
32502;DHT22;18952;52.516;13.460;2023-05-10T15:47:44;25.40;46.90
32502;DHT22;18952;52.516;13.460;2023-05-10T15:50:11;25.10;47.20
32502;DHT22;18952;52.516;13.460;2023-05-10T15:52:38;25.00;47.30
32502;DHT22;18952;52.516;13.460;2023-05-10T15:55:05;24.80;47.60
32502;DHT22;18952;52.516;13.460;2023-05-10T15:57:32;24.70;47.80
32502;DHT22;18952;52.516;13.460;2023-05-10T16:00:02;24.80;47.90
32502;DHT22;18952;52.516;13.460;2023-05-10T16:02:29;24.70;48.10
32502;DHT22;18952;52.516;13.460;2023-05-10T16:04:56;24.90;48.40
32502;DHT22;18952;52.516;13.460;2023-05-10T16:07:23;25.20;48.10